Melvindale, MI (48122)

8:38 AM EDT on July 01, 2015 (GMT -0400)
Southfield And Outer Drive | | Change Station
CLOSE
Current Station
Personal Weather Station
Location: Allen Park, MI
Elevation: 630 ft
Nearby Weather Stations

Elev 630 ft 42.27 °N, 83.21 °W | Updated 21 seconds ago

Overcast
Overcast
67.5 °F
Feels Like 67.5 °F
N
1.8
Wind Variable Wind from NE
Gusts 2.5 mph

Today
High -- | Low -- °F
--% Chance of Precip.
Yesterday
High -- | Low -- °F
Precip. -- in
5:59 AM 9:13 PM
Full, 100% visible
Pressure 29.86 in
Visibility 6.0 miles
Clouds Scattered Clouds 2500 ft
Mostly Cloudy 7500 ft
Overcast 20000 ft
Dew Point 64 °F
Humidity 87%
Rainfall 0.00 in
Snow Depth Not available.
UV 1.0 out of 12
Pollen 2.60 out of 12
Air Quality Not available.
Flu Activity Not available.
METAR KDTW 011153Z 30006KT 6SM BR SCT025 BKN075 OVC200 18/16 A2986 RMK AO2 SLP111 7//// T01830161 10183 20167 53016

More Conditions Fewer Conditions

Pressure 29.86 in
Visibility 6.0 miles
Clouds Scattered Clouds 2500 ft
Mostly Cloudy 7500 ft
Overcast 20000 ft
Dew Point 64 °F
Humidity 87%
Rainfall 0.00 in
Snow Depth Not available.
UV 1.0 out of 12
Pollen 2.60 out of 12
Air Quality Not available.
Flu Activity Not available.
METAR KDTW 011153Z 30006KT 6SM BR SCT025 BKN075 OVC200 18/16 A2986 RMK AO2 SLP111 7//// T01830161 10183 20167 53016

More Conditions Fewer Conditions

10-Day Weather Forecast

×

Almanac

Astronomy

Jul. 01, 2015 Rise Set
Actual Time
Civil Twilight
Nautical Twilight
Astronomical Twilight
Moon
Length of Visible Light
Length of Day
Tomorrow will be .
, % of the Moon is Illuminated

Today's Extremes

State Highs State Lows

Community

WunderPhotos

Upload Photos

1,834,184 photos uploaded!

WunderBlogs® & News

Nearby

Air Quality

  Air Quality AQ Index Pollutant
Not available.

Snow Depth

Station Depth Elevation

Earthquake Activity

City Distance Mag. Time & Date
Minimum magnitude displayed is 2.5.

Coastal Water Temperatures

Place Temperature

Stations

Nearby Weather Stations

Station Location Temp. Windchill Dew Point Humidity Wind Precip. Elev Updated Type